Time;durP1;ratioP1;P1;durP2;ratioP2;P2;SDS_P1;SDS_P2;PMS_P1;PMS_P2;Temp;Humidity;BMP_temperature;BMP_pressure;BME280_temperature;BME280_humidity;BME280_pressure;Samples;Min_cycle;Max_cycle;Signal;HPM_P1;HPM_P2
2022/07/10 00:01:23;;;;;;;6.97;6.28;;;;;;;;;;5022926;28;20550;-57
2022/07/10 00:03:49;;;;;;;7.70;5.97;;;;;;;;;;5019340;28;20088;-57
2022/07/10 00:06:15;;;;;;;8.50;6.60;;;;;;;;;;5022200;28;20106;-56
2022/07/10 00:08:42;;;;;;;6.60;5.88;;;;;;;;;;5027784;28;20033;-56
2022/07/10 00:11:08;;;;;;;9.27;5.85;;;;;;;;;;5021569;28;20049;-56
2022/07/10 00:13:34;;;;;;;9.10;6.38;;;;;;;;;;5027312;28;20037;-57
2022/07/10 00:16:01;;;;;;;9.00;6.03;;;;;;;;;;5027393;28;20569;-56
2022/07/10 00:18:27;;;;;;;6.70;5.80;;;;;;;;;;5029309;28;20036;-56
2022/07/10 00:20:53;;;;;;;7.38;6.00;;;;;;;;;;5029975;28;20200;-57
2022/07/10 00:23:18;;;;;;;8.90;7.38;;;;;;;;;;5030560;28;20105;-57
2022/07/10 00:25:44;;;;;;;12.05;9.07;;;;;;;;;;5028626;28;20046;-57
2022/07/10 00:28:11;;;;;;;18.80;13.57;;;;;;;;;;5028488;28;20091;-56
2022/07/10 00:30:36;;;;;;;26.25;17.35;;;;;;;;;;5031634;28;20037;-57
2022/07/10 00:33:02;;;;;;;26.75;19.30;;;;;;;;;;5029733;28;21729;-57
2022/07/10 00:35:27;;;;;;;24.15;16.17;;;;;;;;;;5030599;28;20391;-56
2022/07/10 00:37:53;;;;;;;25.35;15.00;;;;;;;;;;5027360;28;20160;-57
2022/07/10 00:40:19;;;;;;;22.58;14.30;;;;;;;;;;5028287;28;20034;-56
2022/07/10 00:42:45;;;;;;;19.27;13.80;;;;;;;;;;5026680;28;20036;-56
2022/07/10 00:45:11;;;;;;;17.25;13.18;;;;;;;;;;5030995;28;20026;-57
2022/07/10 00:47:36;;;;;;;18.67;12.50;;;;;;;;;;5030130;28;20028;-57
2022/07/10 00:50:02;;;;;;;20.48;13.07;;;;;;;;;;5027612;28;20033;-55
2022/07/10 00:52:28;;;;;;;18.95;12.60;;;;;;;;;;5027947;28;20030;-57
2022/07/10 00:54:54;;;;;;;22.60;14.57;;;;;;;;;;5022525;28;20032;-56
2022/07/10 00:57:21;;;;;;;21.80;15.05;;;;;;;;;;5028096;28;20430;-57
2022/07/10 00:59:48;;;;;;;32.13;20.58;;;;;;;;;;5024696;28;20053;-57
2022/07/10 01:02:15;;;;;;;38.58;22.60;;;;;;;;;;5027629;28;20036;-57
2022/07/10 01:04:41;;;;;;;43.42;25.60;;;;;;;;;;5027172;28;20446;-56
2022/07/10 01:07:06;;;;;;;33.30;20.58;;;;;;;;;;5025374;28;20106;-56
2022/07/10 01:09:33;;;;;;;37.45;21.77;;;;;;;;;;5026351;28;20025;-57
2022/07/10 01:12:01;;;;;;;32.03;19.15;;;;;;;;;;5031352;28;20025;-56
2022/07/10 01:14:29;;;;;;;30.67;18.05;;;;;;;;;;5030016;28;20435;-56
2022/07/10 01:16:54;;;;;;;26.40;17.02;;;;;;;;;;5030618;28;20104;-56
2022/07/10 01:19:20;;;;;;;22.80;16.02;;;;;;;;;;5028926;28;20037;-57
2022/07/10 01:21:45;;;;;;;26.33;17.38;;;;;;;;;;5024473;28;20458;-56
2022/07/10 01:24:11;;;;;;;26.10;18.40;;;;;;;;;;5023216;28;20021;-56
2022/07/10 01:26:38;;;;;;;24.15;17.02;;;;;;;;;;5027165;28;20438;-57
2022/07/10 01:29:05;;;;;;;20.88;14.90;;;;;;;;;;5028913;28;20455;-56
2022/07/10 01:31:31;;;;;;;16.48;12.20;;;;;;;;;;5027497;28;20025;-56
2022/07/10 01:33:57;;;;;;;18.38;12.65;;;;;;;;;;5029438;28;20037;-57
2022/07/10 01:36:23;;;;;;;16.20;10.77;;;;;;;;;;5025826;28;20025;-56
2022/07/10 01:38:51;;;;;;;18.08;11.20;;;;;;;;;;5029094;28;20040;-56
2022/07/10 01:41:16;;;;;;;15.48;11.85;;;;;;;;;;5025968;28;20038;-57
2022/07/10 01:43:44;;;;;;;18.40;13.57;;;;;;;;;;5028077;28;20025;-56
2022/07/10 01:46:11;;;;;;;19.80;14.55;;;;;;;;;;5025622;28;20033;-56
2022/07/10 01:48:38;;;;;;;22.65;14.45;;;;;;;;;;5027889;28;20290;-56
2022/07/10 01:51:04;;;;;;;18.55;12.98;;;;;;;;;;5024892;28;20111;-56
2022/07/10 01:53:29;;;;;;;19.92;14.80;;;;;;;;;;5026819;28;20477;-56
2022/07/10 01:55:55;;;;;;;20.50;14.38;;;;;;;;;;5024534;28;20068;-57
2022/07/10 01:58:21;;;;;;;19.98;13.00;;;;;;;;;;5027554;28;20036;-56
2022/07/10 02:00:46;;;;;;;24.73;16.35;;;;;;;;;;5025999;28;20028;-57
2022/07/10 02:05:55;;;;;;;22.13;14.75;;;;;;;;;;5026988;28;20045;-56
2022/07/10 02:08:21;;;;;;;21.88;13.63;;;;;;;;;;5029347;28;20037;-56
2022/07/10 02:10:46;;;;;;;17.25;12.20;;;;;;;;;;5029543;28;20350;-56
2022/07/10 02:13:14;;;;;;;20.08;13.77;;;;;;;;;;5027821;28;20037;-57
2022/07/10 02:15:42;;;;;;;19.23;14.18;;;;;;;;;;5028941;28;20095;-56
2022/07/10 02:18:08;;;;;;;20.13;14.70;;;;;;;;;;5027462;28;20022;-57
2022/07/10 02:20:34;;;;;;;23.63;14.40;;;;;;;;;;5026841;28;20029;-56
2022/07/10 02:23:00;;;;;;;19.33;13.43;;;;;;;;;;5027270;28;20112;-56
2022/07/10 02:25:26;;;;;;;19.08;12.65;;;;;;;;;;5026343;28;20116;-56
2022/07/10 02:27:51;;;;;;;17.23;12.52;;;;;;;;;;5029602;28;20025;-56
2022/07/10 02:30:17;;;;;;;18.45;13.18;;;;;;;;;;5029293;28;20029;-57
2022/07/10 02:32:42;;;;;;;16.85;11.63;;;;;;;;;;5026039;28;20025;-57
2022/07/10 02:35:08;;;;;;;15.70;11.48;;;;;;;;;;5024215;28;20025;-56
2022/07/10 02:37:34;;;;;;;12.90;9.57;;;;;;;;;;5025094;28;20025;-56
2022/07/10 02:39:59;;;;;;;17.35;10.38;;;;;;;;;;5030152;28;20557;-56
2022/07/10 02:42:24;;;;;;;15.27;10.30;;;;;;;;;;5023992;28;20503;-57
2022/07/10 02:44:50;;;;;;;14.30;10.57;;;;;;;;;;5025721;28;20029;-57
2022/07/10 02:47:15;;;;;;;13.30;10.77;;;;;;;;;;5027423;28;20033;-56
2022/07/10 02:49:40;;;;;;;13.77;9.98;;;;;;;;;;5027662;28;20032;-57
2022/07/10 02:52:06;;;;;;;13.05;9.48;;;;;;;;;;5026126;28;20514;-56
2022/07/10 02:54:31;;;;;;;13.05;9.75;;;;;;;;;;5023315;28;20033;-56
2022/07/10 02:56:57;;;;;;;12.95;9.00;;;;;;;;;;5022819;28;20145;-56
2022/07/10 02:59:22;;;;;;;11.77;8.13;;;;;;;;;;5022229;28;20048;-56
2022/07/10 03:01:48;;;;;;;10.93;8.20;;;;;;;;;;5025840;28;20439;-57
2022/07/10 03:04:13;;;;;;;12.15;8.23;;;;;;;;;;5022035;28;20042;-56
2022/07/10 03:06:38;;;;;;;10.57;8.13;;;;;;;;;;5023159;28;20086;-56
2022/07/10 03:09:04;;;;;;;11.18;8.30;;;;;;;;;;5023373;28;20112;-56
2022/07/10 03:11:29;;;;;;;11.93;8.40;;;;;;;;;;5025955;28;20029;-57
2022/07/10 03:13:54;;;;;;;13.93;9.05;;;;;;;;;;5029848;28;20554;-56
2022/07/10 03:16:20;;;;;;;16.67;9.85;;;;;;;;;;5026790;28;20040;-56
2022/07/10 03:18:45;;;;;;;12.55;9.63;;;;;;;;;;5027211;28;20070;-56
2022/07/10 03:21:11;;;;;;;12.02;9.55;;;;;;;;;;5027259;28;20021;-56
2022/07/10 03:23:39;;;;;;;11.57;9.20;;;;;;;;;;5029691;28;20025;-56
2022/07/10 03:26:05;;;;;;;12.32;9.45;;;;;;;;;;5024715;28;20025;-56
2022/07/10 03:28:30;;;;;;;14.93;10.02;;;;;;;;;;5027203;28;20116;-56
2022/07/10 03:30:56;;;;;;;14.77;10.98;;;;;;;;;;5026388;28;20112;-56
2022/07/10 03:33:21;;;;;;;12.32;9.20;;;;;;;;;;5029053;28;20133;-56
2022/07/10 03:35:47;;;;;;;15.00;10.13;;;;;;;;;;5027324;28;20021;-56
2022/07/10 03:38:12;;;;;;;14.30;10.00;;;;;;;;;;5021649;28;20030;-56
2022/07/10 03:40:38;;;;;;;10.93;9.40;;;;;;;;;;5022681;28;20106;-56
2022/07/10 03:43:03;;;;;;;13.23;10.20;;;;;;;;;;5025067;28;20036;-57
2022/07/10 03:45:28;;;;;;;11.30;9.77;;;;;;;;;;5024118;28;20042;-56
2022/07/10 03:47:54;;;;;;;12.57;9.93;;;;;;;;;;5026240;28;20134;-56
2022/07/10 03:50:19;;;;;;;14.45;10.13;;;;;;;;;;5023382;28;20041;-57
2022/07/10 03:52:46;;;;;;;12.93;9.40;;;;;;;;;;5022475;28;20059;-56
2022/07/10 03:55:11;;;;;;;12.43;9.93;;;;;;;;;;5028826;28;20479;-57
2022/07/10 03:57:56;;;;;;;17.25;10.75;;;;;;;;;;5026494;28;20029;-56
2022/07/10 04:00:26;;;;;;;11.63;8.65;;;;;;;;;;5024168;28;20033;-56
2022/07/10 04:03:10;;;;;;;15.45;10.05;;;;;;;;;;5026135;28;20770;-57
2022/07/10 04:05:36;;;;;;;15.85;9.93;;;;;;;;;;5024473;28;20041;-56
2022/07/10 04:08:03;;;;;;;12.95;9.73;;;;;;;;;;5031637;28;20029;-57
2022/07/10 04:10:31;;;;;;;14.15;9.63;;;;;;;;;;5030725;28;20029;-56
2022/07/10 04:12:56;;;;;;;14.60;9.98;;;;;;;;;;5031164;28;20472;-56
2022/07/10 04:15:22;;;;;;;12.50;10.27;;;;;;;;;;5031092;28;20041;-56
2022/07/10 04:17:48;;;;;;;14.05;9.85;;;;;;;;;;5031145;28;20090;-56
2022/07/10 04:20:14;;;;;;;13.93;10.30;;;;;;;;;;5029544;28;20033;-56
2022/07/10 04:22:39;;;;;;;12.57;8.85;;;;;;;;;;5031230;28;20030;-56
2022/07/10 04:25:05;;;;;;;16.17;10.38;;;;;;;;;;5027904;28;20029;-57
2022/07/10 04:27:31;;;;;;;15.50;10.55;;;;;;;;;;5029524;28;20030;-57
2022/07/10 04:29:56;;;;;;;17.17;10.48;;;;;;;;;;5029733;28;20029;-56
2022/07/10 04:32:22;;;;;;;14.02;10.13;;;;;;;;;;5030956;28;20060;-57
2022/07/10 04:34:48;;;;;;;14.60;10.48;;;;;;;;;;5028449;28;20036;-56
2022/07/10 04:37:13;;;;;;;16.88;10.70;;;;;;;;;;5025802;28;20030;-56
2022/07/10 04:39:39;;;;;;;15.70;10.55;;;;;;;;;;5025615;28;20454;-57
2022/07/10 04:42:07;;;;;;;15.80;11.27;;;;;;;;;;5030941;28;20083;-56
2022/07/10 04:44:34;;;;;;;14.50;10.38;;;;;;;;;;5026571;28;20029;-56
2022/07/10 04:46:59;;;;;;;14.90;11.00;;;;;;;;;;5026724;28;20550;-56
2022/07/10 04:49:25;;;;;;;16.63;11.63;;;;;;;;;;5022293;28;20124;-56
2022/07/10 04:51:51;;;;;;;18.08;10.43;;;;;;;;;;5028359;28;20499;-56
2022/07/10 04:54:16;;;;;;;17.05;10.93;;;;;;;;;;5025019;28;20083;-56
2022/07/10 04:56:42;;;;;;;15.60;10.93;;;;;;;;;;5028242;28;20362;-57
2022/07/10 04:59:07;;;;;;;15.40;11.27;;;;;;;;;;5027679;28;21297;-56
2022/07/10 05:01:33;;;;;;;14.82;10.05;;;;;;;;;;5030043;28;20100;-57
2022/07/10 05:03:58;;;;;;;17.42;11.65;;;;;;;;;;5024439;28;20022;-59
2022/07/10 05:06:23;;;;;;;18.58;10.57;;;;;;;;;;5023193;28;20764;-59
2022/07/10 05:08:49;;;;;;;16.42;11.00;;;;;;;;;;5030408;28;20063;-59
2022/07/10 05:11:14;;;;;;;15.15;10.60;;;;;;;;;;5030035;28;20082;-59
2022/07/10 05:13:40;;;;;;;16.58;11.52;;;;;;;;;;5030683;28;20033;-59
2022/07/10 05:16:06;;;;;;;19.50;11.88;;;;;;;;;;5028124;28;20084;-59
2022/07/10 05:18:31;;;;;;;17.63;11.55;;;;;;;;;;5028379;28;20552;-59
2022/07/10 05:20:57;;;;;;;16.98;11.07;;;;;;;;;;5028035;28;20518;-59
2022/07/10 05:23:22;;;;;;;16.83;11.05;;;;;;;;;;5030171;28;20394;-59
2022/07/10 05:25:48;;;;;;;16.80;10.85;;;;;;;;;;5030219;28;20025;-59
2022/07/10 05:28:14;;;;;;;15.82;11.52;;;;;;;;;;5026800;28;20034;-59
2022/07/10 05:30:40;;;;;;;18.02;11.88;;;;;;;;;;5026337;28;20030;-59
2022/07/10 05:33:05;;;;;;;17.83;10.77;;;;;;;;;;5027476;28;20036;-59
2022/07/10 05:35:34;;;;;;;16.67;10.77;;;;;;;;;;5030726;28;20533;-59
2022/07/10 05:37:59;;;;;;;14.43;11.13;;;;;;;;;;5023930;28;20029;-59
2022/07/10 05:40:26;;;;;;;16.10;10.57;;;;;;;;;;5026372;28;20052;-59
2022/07/10 05:42:52;;;;;;;15.15;11.25;;;;;;;;;;5023822;28;20026;-59
2022/07/10 05:45:17;;;;;;;14.52;9.90;;;;;;;;;;5026183;28;20102;-59
2022/07/10 05:47:44;;;;;;;15.45;9.90;;;;;;;;;;5025243;28;20043;-59
2022/07/10 05:50:10;;;;;;;14.93;10.30;;;;;;;;;;5026740;28;20376;-59
2022/07/10 05:52:36;;;;;;;15.13;9.82;;;;;;;;;;5029121;28;20052;-59
2022/07/10 05:55:01;;;;;;;11.65;9.20;;;;;;;;;;5028410;28;20558;-59
2022/07/10 05:57:29;;;;;;;14.15;9.82;;;;;;;;;;5026619;28;20095;-59
2022/07/10 05:59:55;;;;;;;14.77;9.75;;;;;;;;;;5028820;28;20065;-59
2022/07/10 06:02:20;;;;;;;13.60;8.93;;;;;;;;;;5022291;28;20056;-59
2022/07/10 06:04:46;;;;;;;14.60;9.27;;;;;;;;;;5026514;28;20111;-59
2022/07/10 06:07:12;;;;;;;12.15;8.10;;;;;;;;;;5029732;28;20025;-59
2022/07/10 06:09:37;;;;;;;12.02;7.07;;;;;;;;;;5028476;28;20026;-59
2022/07/10 06:12:03;;;;;;;10.45;7.07;;;;;;;;;;5028192;28;20119;-60
2022/07/10 06:14:28;;;;;;;10.70;6.95;;;;;;;;;;5028603;28;20108;-59
2022/07/10 06:17:00;;;;;;;11.10;6.75;;;;;;;;;;5029066;28;20049;-59
2022/07/10 06:19:25;;;;;;;12.57;6.80;;;;;;;;;;5026657;28;20175;-59
2022/07/10 06:22:30;;;;;;;10.40;6.15;;;;;;;;;;5025003;28;20041;-59
2022/07/10 06:24:36;;;;;;;13.93;6.75;;;;;;;;;;5023627;28;20450;-60
2022/07/10 06:27:02;;;;;;;10.32;6.43;;;;;;;;;;5025977;28;20113;-59
2022/07/10 06:29:27;;;;;;;9.45;5.97;;;;;;;;;;5023633;28;20030;-59
2022/07/10 06:31:52;;;;;;;10.02;5.90;;;;;;;;;;5028469;28;20092;-60
2022/07/10 06:34:19;;;;;;;10.82;6.03;;;;;;;;;;5026555;28;20424;-59
2022/07/10 06:36:44;;;;;;;9.75;6.65;;;;;;;;;;5026576;28;20021;-59
2022/07/10 06:39:10;;;;;;;9.77;6.30;;;;;;;;;;5025109;28;20039;-59
2022/07/10 06:41:38;;;;;;;8.23;5.72;;;;;;;;;;5023640;28;20079;-59
2022/07/10 06:44:04;;;;;;;7.70;6.25;;;;;;;;;;5028962;28;20057;-59
2022/07/10 06:46:30;;;;;;;10.35;6.13;;;;;;;;;;5020773;28;20542;-59
2022/07/10 06:48:55;;;;;;;10.23;5.40;;;;;;;;;;5024204;28;20067;-59
2022/07/10 06:51:21;;;;;;;7.72;5.43;;;;;;;;;;5021627;28;20467;-59
2022/07/10 06:53:46;;;;;;;7.47;5.25;;;;;;;;;;5026673;28;20499;-59
2022/07/10 06:56:14;;;;;;;7.60;5.13;;;;;;;;;;5027022;28;20033;-59
2022/07/10 06:58:40;;;;;;;8.60;5.55;;;;;;;;;;5023302;28;20184;-59
2022/07/10 07:01:05;;;;;;;8.85;5.35;;;;;;;;;;5027719;28;20487;-59
2022/07/10 07:03:30;;;;;;;8.32;5.72;;;;;;;;;;5026656;28;20152;-59
2022/07/10 07:05:56;;;;;;;10.52;5.75;;;;;;;;;;5028727;28;20367;-60
2022/07/10 07:08:21;;;;;;;8.75;5.88;;;;;;;;;;5026496;28;20095;-60
2022/07/10 07:10:47;;;;;;;11.20;5.90;;;;;;;;;;5026775;28;20025;-60
2022/07/10 07:13:12;;;;;;;12.20;5.93;;;;;;;;;;5027878;28;20322;-59
2022/07/10 07:15:41;;;;;;;8.98;5.63;;;;;;;;;;5026866;28;20045;-60
2022/07/10 07:18:08;;;;;;;7.05;5.00;;;;;;;;;;5025088;28;20044;-59
2022/07/10 07:23:19;;;;;;;6.28;3.97;;;;;;;;;;5026515;28;20047;-60
2022/07/10 07:25:46;;;;;;;5.85;3.92;;;;;;;;;;5026860;28;20040;-60
2022/07/10 07:28:15;;;;;;;5.72;3.50;;;;;;;;;;5024712;28;20404;-60
2022/07/10 07:30:41;;;;;;;5.68;3.55;;;;;;;;;;5026582;28;20028;-59
2022/07/10 07:33:06;;;;;;;4.78;3.50;;;;;;;;;;5025501;28;20425;-60
2022/07/10 07:35:32;;;;;;;5.97;3.85;;;;;;;;;;5023417;28;20032;-59
2022/07/10 07:37:57;;;;;;;5.70;3.85;;;;;;;;;;5020487;28;20025;-59
2022/07/10 07:40:23;;;;;;;8.63;3.70;;;;;;;;;;5024403;28;20087;-59
2022/07/10 07:42:49;;;;;;;6.78;3.80;;;;;;;;;;5025481;28;20037;-59
2022/07/10 07:45:15;;;;;;;5.32;3.75;;;;;;;;;;5028645;28;20061;-59
2022/07/10 07:47:48;;;;;;;6.75;4.10;;;;;;;;;;5023708;28;20503;-60
2022/07/10 07:50:16;;;;;;;6.00;3.90;;;;;;;;;;5025215;28;20034;-59
2022/07/10 07:52:41;;;;;;;8.02;3.97;;;;;;;;;;5022749;28;20029;-60
2022/07/10 07:55:08;;;;;;;9.52;4.10;;;;;;;;;;5024474;28;20072;-59
2022/07/10 07:57:33;;;;;;;6.22;3.97;;;;;;;;;;5019343;28;20029;-61
2022/07/10 07:59:59;;;;;;;5.80;4.30;;;;;;;;;;5021455;28;20045;-61
2022/07/10 08:02:24;;;;;;;5.88;4.40;;;;;;;;;;5025409;28;20037;-61
2022/07/10 08:04:50;;;;;;;5.95;3.95;;;;;;;;;;5024885;28;20454;-61
2022/07/10 08:07:15;;;;;;;10.13;4.22;;;;;;;;;;5026509;28;20495;-61
2022/07/10 08:09:40;;;;;;;10.40;4.43;;;;;;;;;;5026777;28;20037;-60
2022/07/10 08:12:06;;;;;;;7.00;4.03;;;;;;;;;;5026750;28;20041;-60
2022/07/10 08:14:32;;;;;;;5.72;4.13;;;;;;;;;;5024647;28;20029;-60
2022/07/10 08:16:57;;;;;;;6.25;4.60;;;;;;;;;;5024182;28;20337;-60
2022/07/10 08:19:22;;;;;;;8.05;4.28;;;;;;;;;;5021877;28;20022;-61
2022/07/10 08:21:48;;;;;;;6.53;3.95;;;;;;;;;;5025212;28;20033;-60
2022/07/10 08:24:14;;;;;;;8.27;3.90;;;;;;;;;;5024279;28;20503;-60
2022/07/10 08:26:40;;;;;;;5.55;3.88;;;;;;;;;;5025446;28;20087;-60
2022/07/10 08:29:05;;;;;;;6.80;4.28;;;;;;;;;;5024925;28;20430;-60
2022/07/10 08:31:32;;;;;;;6.93;3.80;;;;;;;;;;5025523;28;20271;-60
2022/07/10 08:33:58;;;;;;;6.25;3.85;;;;;;;;;;5020451;28;20025;-60
2022/07/10 08:36:23;;;;;;;7.72;3.97;;;;;;;;;;5027043;28;20087;-60
2022/07/10 08:38:49;;;;;;;9.93;4.30;;;;;;;;;;5025709;28;20203;-60
2022/07/10 08:41:17;;;;;;;9.32;4.55;;;;;;;;;;5029024;28;20039;-60
2022/07/10 08:43:43;;;;;;;8.07;4.15;;;;;;;;;;5029514;28;20026;-60
2022/07/10 08:46:11;;;;;;;8.77;4.90;;;;;;;;;;5027978;28;20040;-60
2022/07/10 08:48:39;;;;;;;5.90;4.03;;;;;;;;;;5025439;28;20057;-60
2022/07/10 08:51:06;;;;;;;7.43;3.80;;;;;;;;;;5027053;28;20037;-60
2022/07/10 08:53:32;;;;;;;6.57;3.92;;;;;;;;;;5030088;28;20029;-60
2022/07/10 08:55:58;;;;;;;11.40;5.43;;;;;;;;;;5029134;28;20025;-60
2022/07/10 08:58:27;;;;;;;12.82;6.07;;;;;;;;;;5023376;28;20403;-55
2022/07/10 09:00:53;;;;;;;7.13;4.53;;;;;;;;;;5025700;28;20029;-55
2022/07/10 09:03:19;;;;;;;6.85;4.32;;;;;;;;;;5027696;28;20032;-55
2022/07/10 09:05:44;;;;;;;6.97;4.40;;;;;;;;;;5029763;28;20041;-54
2022/07/10 09:08:22;;;;;;;7.00;4.03;;;;;;;;;;5027845;28;20029;-54
2022/07/10 09:10:47;;;;;;;8.35;4.20;;;;;;;;;;5028864;28;20029;-54
2022/07/10 09:13:13;;;;;;;7.90;4.40;;;;;;;;;;5029024;28;20025;-54
2022/07/10 09:15:38;;;;;;;8.07;3.83;;;;;;;;;;5030830;28;20024;-54
2022/07/10 09:18:08;;;;;;;8.43;3.70;;;;;;;;;;5026835;28;20128;-54
2022/07/10 09:20:37;;;;;;;9.48;4.07;;;;;;;;;;5029460;28;20025;-55
2022/07/10 09:23:19;;;;;;;9.00;3.85;;;;;;;;;;5027632;28;20033;-50
2022/07/10 09:25:48;;;;;;;8.32;4.07;;;;;;;;;;5028539;28;20576;-60
2022/07/10 09:28:17;;;;;;;8.13;4.10;;;;;;;;;;5027024;28;20041;-61
2022/07/10 09:30:42;;;;;;;10.15;3.80;;;;;;;;;;5026129;28;20364;-61
2022/07/10 09:33:26;;;;;;;5.65;3.97;;;;;;;;;;5026895;28;20083;-61
2022/07/10 09:36:05;;;;;;;8.27;3.90;;;;;;;;;;5022199;28;20026;-61
2022/07/10 09:38:43;;;;;;;6.82;3.67;;;;;;;;;;5025442;28;20025;-61
2022/07/10 09:41:15;;;;;;;8.68;3.65;;;;;;;;;;5026297;28;20034;-61
2022/07/10 09:43:48;;;;;;;9.68;4.30;;;;;;;;;;5025956;28;20080;-61
2022/07/10 09:46:14;;;;;;;6.15;4.38;;;;;;;;;;5028855;28;20115;-60
2022/07/10 09:48:40;;;;;;;6.70;3.70;;;;;;;;;;5030450;28;20353;-60
2022/07/10 09:51:11;;;;;;;8.65;4.20;;;;;;;;;;5027898;28;20407;-60
2022/07/10 09:53:41;;;;;;;8.27;4.50;;;;;;;;;;5028011;28;20422;-60
2022/07/10 09:56:09;;;;;;;7.88;3.67;;;;;;;;;;5023378;28;20026;-60
2022/07/10 09:58:37;;;;;;;6.35;3.70;;;;;;;;;;5028326;28;20263;-61
2022/07/10 10:01:07;;;;;;;7.65;3.58;;;;;;;;;;5029286;28;20083;-61
2022/07/10 10:03:38;;;;;;;6.57;3.05;;;;;;;;;;5027643;28;20483;-61
2022/07/10 10:06:16;;;;;;;4.13;2.90;;;;;;;;;;5025000;28;20622;-61
2022/07/10 10:08:58;;;;;;;5.25;3.70;;;;;;;;;;5028312;28;20112;-61
2022/07/10 10:11:26;;;;;;;7.65;3.55;;;;;;;;;;5025090;28;20041;-60
2022/07/10 10:13:52;;;;;;;7.07;3.65;;;;;;;;;;5027135;28;20025;-60
2022/07/10 10:16:19;;;;;;;6.18;3.17;;;;;;;;;;5027527;28;20051;-61
2022/07/10 10:21:29;;;;;;;4.78;3.15;;;;;;;;;;5025163;28;20465;-61
2022/07/10 10:23:55;;;;;;;7.32;2.90;;;;;;;;;;5027162;28;20045;-61
2022/07/10 10:26:23;;;;;;;3.35;2.72;;;;;;;;;;5029532;28;20030;-61
2022/07/10 10:28:51;;;;;;;6.97;3.00;;;;;;;;;;5023184;28;20109;-61
2022/07/10 10:31:16;;;;;;;6.85;3.45;;;;;;;;;;5025078;28;20041;-61
2022/07/10 10:33:45;;;;;;;8.07;4.13;;;;;;;;;;5024026;28;20021;-61
2022/07/10 10:36:13;;;;;;;6.90;4.15;;;;;;;;;;5027209;28;20030;-61
2022/07/10 10:38:55;;;;;;;7.70;3.40;;;;;;;;;;5023915;28;20505;-61
2022/07/10 10:41:33;;;;;;;7.88;3.15;;;;;;;;;;5020235;28;20363;-61
2022/07/10 10:44:07;;;;;;;7.97;3.75;;;;;;;;;;5028038;28;20155;-61
2022/07/10 10:46:53;;;;;;;6.35;3.50;;;;;;;;;;5028601;28;20477;-61
2022/07/10 10:49:20;;;;;;;7.15;3.70;;;;;;;;;;5027170;28;20474;-60
2022/07/10 10:52:02;;;;;;;9.25;4.15;;;;;;;;;;5030166;28;20032;-61
2022/07/10 10:54:29;;;;;;;5.10;3.00;;;;;;;;;;5027998;28;20045;-61
2022/07/10 10:57:14;;;;;;;14.52;3.90;;;;;;;;;;5027234;28;20025;-60
2022/07/10 10:59:49;;;;;;;6.63;3.03;;;;;;;;;;5023729;28;20103;-60
2022/07/10 11:02:29;;;;;;;8.82;4.32;;;;;;;;;;5027973;28;20056;-60
2022/07/10 11:05:20;;;;;;;5.50;2.88;;;;;;;;;;5027476;28;20037;-60
2022/07/10 11:08:01;;;;;;;7.97;3.17;;;;;;;;;;5027911;28;20037;-59
2022/07/10 11:10:40;;;;;;;7.55;3.15;;;;;;;;;;5025885;28;20028;-59
2022/07/10 11:13:08;;;;;;;4.07;3.00;;;;;;;;;;5026169;28;20021;-60
2022/07/10 11:15:45;;;;;;;7.15;3.90;;;;;;;;;;5026108;28;20667;-60
2022/07/10 11:18:12;;;;;;;6.55;3.05;;;;;;;;;;5025045;28;20042;-60
2022/07/10 11:20:41;;;;;;;6.38;2.95;;;;;;;;;;5022532;28;20021;-60
2022/07/10 11:23:17;;;;;;;;;;;;;;;;;;5024784;28;20399;-60
2022/07/10 11:26:00;;;;;;;5.40;2.70;;;;;;;;;;5025790;28;20374;-60
2022/07/10 11:28:35;;;;;;;4.82;2.90;;;;;;;;;;5024691;28;20038;-60
2022/07/10 11:31:00;;;;;;;4.22;2.83;;;;;;;;;;5022380;28;20051;-60
2022/07/10 11:33:27;;;;;;;6.78;3.83;;;;;;;;;;5024535;28;20037;-60
2022/07/10 11:35:53;;;;;;;3.55;2.72;;;;;;;;;;5024984;28;20111;-60
2022/07/10 11:38:23;;;;;;;6.85;3.95;;;;;;;;;;5019970;28;20030;-60
2022/07/10 11:40:49;;;;;;;3.80;2.72;;;;;;;;;;5021222;28;20029;-59
2022/07/10 11:43:17;;;;;;;5.78;3.30;;;;;;;;;;5028288;28;20037;-61
2022/07/10 11:45:43;;;;;;;6.93;2.70;;;;;;;;;;5026159;28;20053;-61
2022/07/10 11:48:23;;;;;;;6.75;2.45;;;;;;;;;;5027275;28;20029;-60
2022/07/10 11:50:49;;;;;;;5.55;2.58;;;;;;;;;;5027223;28;20036;-60
2022/07/10 11:53:22;;;;;;;4.85;2.47;;;;;;;;;;5022887;28;20026;-61
2022/07/10 11:55:49;;;;;;;6.32;2.42;;;;;;;;;;5019370;28;20460;-61
2022/07/10 11:58:14;;;;;;;5.35;2.53;;;;;;;;;;5022307;28;20052;-60
2022/07/10 12:00:40;;;;;;;5.93;2.47;;;;;;;;;;5026861;28;20391;-61
2022/07/10 12:03:21;;;;;;;5.97;2.42;;;;;;;;;;5027872;28;20168;-60
2022/07/10 12:05:50;;;;;;;8.38;4.32;;;;;;;;;;5027094;28;20068;-60
2022/07/10 12:08:15;;;;;;;;;;;;;;;;;;5027878;28;20037;-60
2022/07/10 12:10:42;;;;;;;3.30;2.88;;;;;;;;;;5025961;28;20252;-61
2022/07/10 12:13:12;;;;;;;4.30;2.58;;;;;;;;;;5023826;28;20025;-61
2022/07/10 12:15:38;;;;;;;3.45;2.35;;;;;;;;;;5026663;28;20120;-62
2022/07/10 12:18:08;;;;;;;3.70;2.20;;;;;;;;;;5030075;28;20478;-60
2022/07/10 12:20:35;;;;;;;3.63;2.35;;;;;;;;;;5028015;28;20041;-61
2022/07/10 12:23:00;;;;;;;2.97;2.20;;;;;;;;;;5026484;28;20082;-60
2022/07/10 12:25:26;;;;;;;4.35;2.13;;;;;;;;;;5029766;28;20717;-61
2022/07/10 12:27:58;;;;;;;3.75;2.22;;;;;;;;;;5031631;28;20029;-61
2022/07/10 12:30:46;;;;;;;3.08;2.15;;;;;;;;;;5031444;28;20240;-60
2022/07/10 12:33:19;;;;;;;4.10;2.33;;;;;;;;;;5029857;28;20449;-61
2022/07/10 12:35:58;;;;;;;5.35;2.10;;;;;;;;;;5025775;28;20024;-61
2022/07/10 12:38:25;;;;;;;6.30;2.85;;;;;;;;;;5024842;28;20036;-60
2022/07/10 12:41:06;;;;;;;6.60;2.53;;;;;;;;;;5028194;28;20026;-61
2022/07/10 12:43:31;;;;;;;7.20;2.67;;;;;;;;;;5028257;28;20100;-60
2022/07/10 12:46:20;;;;;;;7.57;2.72;;;;;;;;;;5029819;28;20154;-61
2022/07/10 12:49:05;;;;;;;7.85;2.30;;;;;;;;;;5022931;28;20039;-61
2022/07/10 12:51:43;;;;;;;7.95;2.40;;;;;;;;;;5025344;28;20021;-61
2022/07/10 12:54:08;;;;;;;5.28;2.22;;;;;;;;;;5026962;28;20036;-61
2022/07/10 12:56:36;;;;;;;5.43;2.03;;;;;;;;;;5026082;28;20022;-61
2022/07/10 12:59:13;;;;;;;3.42;2.10;;;;;;;;;;5029919;28;20084;-61
2022/07/10 13:01:44;;;;;;;5.47;2.25;;;;;;;;;;5029701;28;20028;-61
2022/07/10 13:04:10;;;;;;;5.32;2.25;;;;;;;;;;5029740;28;20083;-61
2022/07/10 13:06:37;;;;;;;2.95;2.10;;;;;;;;;;5025903;28;20085;-61
2022/07/10 13:09:17;;;;;;;6.07;2.35;;;;;;;;;;5028825;28;20282;-63
2022/07/10 13:11:43;;;;;;;3.13;1.83;;;;;;;;;;5026688;28;20513;-62
2022/07/10 13:14:08;;;;;;;4.80;2.20;;;;;;;;;;5027649;28;20061;-62
2022/07/10 13:16:33;;;;;;;5.28;2.28;;;;;;;;;;5028389;28;20053;-62
2022/07/10 13:18:59;;;;;;;3.50;2.10;;;;;;;;;;5029492;28;20029;-62
2022/07/10 13:21:24;;;;;;;3.70;1.80;;;;;;;;;;5028529;28;20116;-62
2022/07/10 13:23:50;;;;;;;5.47;1.52;;;;;;;;;;5027409;28;20402;-62
2022/07/10 13:26:16;;;;;;;4.78;1.95;;;;;;;;;;5023926;28;20030;-61
2022/07/10 13:28:41;;;;;;;4.93;1.83;;;;;;;;;;5028205;28;20076;-61
2022/07/10 13:31:08;;;;;;;4.43;1.60;;;;;;;;;;5025512;28;20510;-62
2022/07/10 13:33:34;;;;;;;3.22;1.60;;;;;;;;;;5026804;28;20120;-61
2022/07/10 13:36:00;;;;;;;3.50;1.85;;;;;;;;;;5023916;28;20118;-62
2022/07/10 13:38:26;;;;;;;8.10;1.90;;;;;;;;;;5025737;28;20094;-62
2022/07/10 13:40:51;;;;;;;3.60;2.17;;;;;;;;;;5026351;28;20124;-61
2022/07/10 13:43:17;;;;;;;2.60;1.48;;;;;;;;;;5029595;28;20029;-62
2022/07/10 13:45:42;;;;;;;4.95;1.50;;;;;;;;;;5023254;28;20041;-62
2022/07/10 13:48:12;;;;;;;2.17;1.40;;;;;;;;;;5027091;28;20400;-62
2022/07/10 13:50:38;;;;;;;4.45;1.45;;;;;;;;;;5028214;28;20239;-61
2022/07/10 13:53:04;;;;;;;4.82;1.60;;;;;;;;;;5027634;28;20025;-62
2022/07/10 13:55:30;;;;;;;2.50;1.40;;;;;;;;;;5027661;28;20159;-62
2022/07/10 13:57:56;;;;;;;3.28;1.42;;;;;;;;;;5030322;28;20111;-62
2022/07/10 14:00:21;;;;;;;4.70;1.52;;;;;;;;;;5030203;28;20064;-62
2022/07/10 14:02:47;;;;;;;1.83;1.30;;;;;;;;;;5028770;28;20037;-62
2022/07/10 14:05:12;;;;;;;3.40;1.60;;;;;;;;;;5029051;28;20130;-61
2022/07/10 14:07:38;;;;;;;2.95;1.40;;;;;;;;;;5027410;28;20021;-62
2022/07/10 14:10:04;;;;;;;3.88;1.38;;;;;;;;;;5028749;28;20033;-62
2022/07/10 14:12:31;;;;;;;4.35;1.40;;;;;;;;;;5025664;28;20041;-62
2022/07/10 14:14:58;;;;;;;4.93;1.60;;;;;;;;;;5028777;28;20027;-63
2022/07/10 14:17:24;;;;;;;4.25;1.63;;;;;;;;;;5024532;28;20058;-62
2022/07/10 14:19:49;;;;;;;5.03;1.70;;;;;;;;;;5023601;28;20399;-62
2022/07/10 14:22:15;;;;;;;4.90;1.23;;;;;;;;;;5025863;28;20029;-62
2022/07/10 14:24:41;;;;;;;4.57;1.50;;;;;;;;;;5029204;28;20032;-63
2022/07/10 14:27:07;;;;;;;3.80;1.52;;;;;;;;;;5022732;28;20054;-62
2022/07/10 14:29:32;;;;;;;4.53;1.42;;;;;;;;;;5025504;28;20063;-62
2022/07/10 14:31:58;;;;;;;4.43;1.10;;;;;;;;;;5024534;28;20376;-62
2022/07/10 14:34:24;;;;;;;5.80;1.20;;;;;;;;;;5024673;28;20047;-62
2022/07/10 14:36:50;;;;;;;3.20;1.58;;;;;;;;;;5025328;28;20403;-62
2022/07/10 14:39:16;;;;;;;6.60;1.60;;;;;;;;;;5025355;28;20120;-62
2022/07/10 14:41:41;;;;;;;3.95;1.20;;;;;;;;;;5028215;28;20108;-62
2022/07/10 14:44:07;;;;;;;4.03;1.10;;;;;;;;;;5027962;28;20483;-62